Los Lunas ASC Data

Date Time Air Temperature Relative Humidity Dewpoint Heat Index Wind Speed Wind Dir. Rain Solar Radiation Soil Temperature
2m 2m 3m 3m 10cm
US/Mountain F % F F MPH deg in MJ/m^2 F
max avg avg
2021-07-22 00:05:00 72.6 50.5 53.2 72.6 0.0 0.0 0.0 277.7 0.0 0.00 0.0000000 88.4
2021-07-22 00:10:00 72.7 49.3 52.6 72.7 0.0 0.0 0.0 241.2 0.0 0.00 0.0000000 88.3
2021-07-22 00:15:00 72.9 51.0 53.7 72.9 0.0 0.0 0.0 262.5 0.0 0.00 0.0000000 88.2
2021-07-22 00:20:00 72.6 49.8 52.8 72.6 0.0 0.0 0.0 244.9 0.0 0.00 0.0000000 88.1
2021-07-22 00:25:00 72.2 51.4 53.3 72.2 0.0 0.0 0.0 251.9 0.0 0.00 0.0000000 88.0
2021-07-22 00:30:00 72.1 51.1 53.1 72.1 0.0 0.0 0.0 226.5 0.0 0.00 0.0000000 87.9
2021-07-22 00:35:00 71.9 51.6 53.2 71.9 0.0 0.0 0.0 230.6 0.0 0.00 0.0000000 87.8
2021-07-22 00:40:00 71.8 53.7 54.1 71.8 0.0 0.0 0.0 53.1 0.0 0.00 0.0000000 87.7
2021-07-22 00:45:00 71.6 52.4 53.3 71.6 0.0 0.0 0.0 32.0 0.0 0.00 0.0000000 87.6
2021-07-22 00:50:00 71.7 51.5 52.9 71.7 0.0 0.0 0.0 1.5 0.0 0.00 0.0000000 87.5
2021-07-22 00:55:00 72.0 51.1 53.0 72.0 0.0 0.0 0.0 327.3 0.0 0.00 0.0000000 87.4
2021-07-22 01:00:00 72.1 51.9 53.5 72.1 0.0 0.0 0.0 0.8 0.0 0.00 0.0000000 87.3
2021-07-22 01:05:00 72.1 52.9 53.9 72.1 0.0 0.0 0.0 226.0 0.0 0.00 0.0000000 87.2
2021-07-22 01:10:00 71.7 52.3 53.3 71.7 0.0 0.0 0.0 226.3 0.0 0.00 0.0000000 87.1
2021-07-22 01:15:00 71.9 50.8 52.7 71.9 0.0 0.0 0.0 219.9 0.0 0.00 0.0000000 87.1
2021-07-22 01:20:00 71.8 52.2 53.4 71.8 0.0 0.0 0.0 272.3 0.0 0.00 0.0000000 87.0
2021-07-22 01:25:00 72.2 51.7 53.4 72.2 0.0 0.0 0.0 288.6 0.0 0.00 0.0000000 86.9
2021-07-22 01:30:00 72.2 49.2 52.1 72.2 0.0 0.0 0.0 247.6 0.0 0.00 0.0000000 86.8
2021-07-22 01:35:00 72.6 47.3 51.4 72.6 0.0 0.0 0.0 235.1 0.0 0.00 0.0000000 86.7
2021-07-22 01:40:00 72.9 46.3 51.1 72.9 0.0 0.0 0.0 310.5 0.0 0.00 0.0000000 86.6
2021-07-22 01:45:00 73.5 46.7 51.9 73.5 0.0 0.0 0.0 260.9 0.0 0.00 0.0000000 86.5
2021-07-22 01:50:00 73.6 46.0 51.5 73.6 0.0 0.0 0.0 196.0 0.0 0.00 0.0000000 86.5
2021-07-22 01:55:00 73.7 46.6 52.0 73.7 0.0 0.0 0.0 284.0 0.0 0.00 0.0000000 86.4
2021-07-22 02:00:00 73.7 46.9 52.1 73.7 0.0 0.0 0.0 244.1 0.0 0.00 0.0000000 86.3
2021-07-22 02:05:00 73.3 49.0 53.0 73.3 0.0 0.0 0.0 225.3 0.0 0.00 0.0000000 86.2
2021-07-22 02:10:00 73.6 46.1 51.6 73.6 0.0 0.0 0.0 254.8 0.0 0.00 0.0000000 86.2
2021-07-22 02:15:00 73.3 47.2 51.9 73.3 0.0 0.0 0.0 235.5 0.0 0.00 0.0000000 86.1
2021-07-22 02:20:00 73.2 47.4 52.0 73.2 0.0 0.0 0.0 284.6 0.0 0.00 0.0000000 86.0
2021-07-22 02:25:00 72.8 48.0 52.0 72.8 0.0 0.0 0.0 291.2 0.0 0.00 0.0000000 85.9
2021-07-22 02:30:00 72.8 47.1 51.5 72.8 0.0 0.0 0.0 232.3 0.0 0.00 0.0000000 85.9
2021-07-22 02:35:00 72.8 46.1 50.9 72.8 0.0 0.0 0.0 224.9 0.0 0.00 0.0000000 85.8
2021-07-22 02:40:00 73.0 47.2 51.7 73.0 0.0 0.0 0.0 168.0 0.0 0.00 0.0000000 85.7
2021-07-22 02:45:00 73.1 46.9 51.7 73.1 0.0 0.0 0.0 249.6 0.0 0.00 0.0000000 85.7
2021-07-22 02:50:00 72.9 46.5 51.2 72.9 0.0 0.0 0.0 226.9 0.0 0.00 0.0000000 85.6
2021-07-22 02:55:00 72.7 46.4 51.0 72.7 0.0 0.0 0.0 269.5 0.0 0.00 0.0000000 85.5
2021-07-22 03:00:00 73.1 46.3 51.2 73.1 0.0 0.0 0.0 242.2 0.0 0.00 0.0000000 85.4
2021-07-22 03:05:00 72.9 47.0 51.5 72.9 0.0 0.0 0.0 245.7 0.0 0.00 0.0000000 85.4
2021-07-22 03:10:00 72.4 47.2 51.1 72.4 0.0 0.0 0.0 252.7 0.0 0.00 0.0000000 85.3
2021-07-22 03:15:00 72.1 48.0 51.3 72.1 0.0 0.0 0.0 251.1 0.0 0.00 0.0000000 85.2
2021-07-22 03:20:00 71.8 48.6 51.4 71.8 0.0 0.0 0.0 249.4 0.0 0.00 0.0000000 85.1
2021-07-22 03:25:00 72.1 49.5 52.1 72.1 0.0 0.0 0.0 228.9 0.0 0.00 0.0000000 85.0
2021-07-22 03:30:00 71.7 49.2 51.7 71.7 0.0 0.0 0.0 319.5 0.0 0.00 0.0000000 85.0
2021-07-22 03:35:00 71.4 49.4 51.5 71.4 0.0 0.0 0.0 303.7 0.0 0.00 0.0000000 84.9
2021-07-22 03:40:00 71.5 49.4 51.6 71.5 0.0 0.0 0.0 296.1 0.0 0.00 0.0000000 84.8
2021-07-22 03:45:00 71.1 52.0 52.6 71.1 0.0 0.0 0.0 300.2 0.0 0.00 0.0000000 84.8
2021-07-22 03:50:00 70.8 50.3 51.4 70.8 0.0 0.0 0.0 282.3 0.0 0.00 0.0000000 84.7
2021-07-22 03:55:00 70.9 51.4 52.1 70.9 0.0 0.0 0.0 311.8 0.0 0.00 0.0000000 84.6
2021-07-22 04:00:00 70.5 51.7 51.9 70.5 0.0 0.0 0.0 272.5 0.0 0.00 0.0000000 84.6
2021-07-22 04:05:00 71.0 50.4 51.7 71.0 0.0 0.0 0.0 251.5 0.0 0.00 0.0000000 84.5
2021-07-22 04:10:00 71.3 49.8 51.6 71.3 0.0 0.0 0.0 250.0 0.0 0.00 0.0000000 84.4
2021-07-22 04:15:00 71.6 49.7 51.8 71.6 0.0 0.0 0.0 278.2 0.0 0.00 0.0000000 84.3
2021-07-22 04:20:00 71.6 49.1 51.5 71.6 0.0 0.0 0.0 253.3 0.0 0.00 0.0000000 84.3
2021-07-22 04:25:00 71.5 50.3 52.0 71.5 0.0 0.0 0.0 231.2 0.0 0.00 0.0000000 84.2
2021-07-22 04:30:00 71.3 50.0 51.7 71.3 0.0 0.0 0.0 213.0 0.0 0.00 0.0000000 84.1
2021-07-22 04:35:00 71.3 49.7 51.6 71.3 0.0 0.0 0.0 253.5 0.0 0.00 0.0000000 84.1
2021-07-22 04:40:00 71.5 49.2 51.4 71.5 0.0 0.0 0.0 240.1 0.0 0.00 0.0000000 84.0
2021-07-22 04:45:00 71.4 50.0 51.8 71.4 0.0 0.0 0.0 222.9 0.0 0.00 0.0000000 84.0
2021-07-22 04:50:00 71.5 50.0 51.8 71.5 0.0 0.0 0.0 196.4 0.0 0.00 0.0000000 83.9
2021-07-22 04:55:00 71.1 49.3 51.1 71.1 0.0 0.0 0.0 241.0 0.0 0.00 0.0000000 83.8
2021-07-22 05:00:00 71.3 49.6 51.5 71.3 0.0 0.0 0.0 264.1 0.0 0.00 0.0000000 83.8
2021-07-22 05:05:00 71.0 50.4 51.7 71.0 0.0 0.0 0.0 293.7 0.0 0.00 0.0000000 83.7
2021-07-22 05:10:00 70.8 49.4 50.9 70.8 0.0 0.0 0.0 256.6 0.0 0.00 0.0000000 83.6
2021-07-22 05:15:00 71.0 49.2 50.9 71.0 0.0 0.0 0.0 227.3 0.0 0.00 0.0000000 83.6
2021-07-22 05:20:00 71.0 49.7 51.2 71.0 0.0 0.0 0.0 258.9 0.0 0.00 0.0000000 83.5
2021-07-22 05:25:00 70.8 50.3 51.4 70.8 0.0 0.0 0.0 278.5 0.0 0.00 0.0000000 83.4
2021-07-22 05:30:00 70.8 49.9 51.2 70.8 0.0 0.0 0.0 287.4 0.0 0.00 0.0000000 83.4
2021-07-22 05:35:00 70.5 50.7 51.3 70.5 0.0 0.0 0.0 187.0 0.0 0.00 0.0000000 83.3
2021-07-22 05:40:00 70.0 52.4 51.8 70.0 0.0 0.0 0.0 212.8 0.0 0.00 0.0000000 83.2
2021-07-22 05:45:00 69.7 52.6 51.6 69.7 0.0 0.0 0.0 283.1 0.0 0.00 0.0000000 83.2
2021-07-22 05:50:00 69.5 52.3 51.2 69.5 0.0 0.0 0.0 303.5 0.0 0.00 0.0000000 83.1
2021-07-22 05:55:00 69.2 52.0 50.8 69.2 0.0 0.0 0.0 271.8 0.0 0.00 0.0000000 83.0
2021-07-22 06:00:00 69.1 51.6 50.5 69.1 0.0 0.0 0.0 272.3 0.0 0.00 0.0010000 82.9
2021-07-22 06:05:00 69.7 51.0 50.7 69.7 0.0 0.0 0.0 259.6 0.0 0.00 0.0030000 82.9
2021-07-22 06:10:00 69.6 51.5 50.9 69.6 0.0 0.0 0.0 175.4 0.0 0.00 0.0030000 82.8
2021-07-22 06:15:00 69.1 53.3 51.4 69.1 0.0 0.0 0.0 167.7 0.0 0.00 0.0040000 82.8
2021-07-22 06:20:00 69.0 53.5 51.5 69.0 0.0 0.0 0.0 183.5 0.0 0.00 0.0080000 82.7
2021-07-22 06:25:00 68.8 54.1 51.5 68.8 0.0 0.0 0.0 337.6 0.0 0.00 0.0130000 82.6
2021-07-22 06:30:00 68.4 55.4 51.8 68.4 0.0 0.0 0.0 2.9 0.0 0.00 0.0210000 82.6
2021-07-22 06:35:00 68.4 55.8 52.0 68.4 0.0 0.0 0.0 327.5 0.0 0.00 0.0290000 82.5
2021-07-22 06:40:00 68.3 57.1 52.5 68.3 0.0 0.0 0.0 275.1 0.0 0.00 0.0340000 82.4
2021-07-22 06:45:00 68.2 59.8 53.7 68.2 0.0 0.0 0.0 240.0 0.0 0.00 0.0380000 82.4
2021-07-22 06:50:00 68.2 59.7 53.6 68.2 0.0 0.0 0.0 273.1 0.0 0.00 0.0410000 82.3
2021-07-22 06:55:00 68.1 59.4 53.4 68.1 0.0 0.0 0.0 20.6 0.0 0.00 0.0440000 82.2
2021-07-22 07:00:00 68.2 57.7 52.8 68.2 0.0 0.0 0.0 233.4 0.0 0.00 0.0450000 82.2
2021-07-22 07:05:00 68.3 58.6 53.2 68.3 0.0 0.0 0.0 224.8 0.0 0.00 0.0500000 82.1
2021-07-22 07:10:00 68.3 57.6 52.8 68.3 0.0 0.0 0.0 254.9 0.0 0.00 0.0550000 82.1
2021-07-22 07:15:00 68.5 59.0 53.6 68.5 0.0 0.0 0.0 202.5 0.0 0.00 0.0630000 82.0
2021-07-22 07:20:00 68.7 56.8 52.7 68.7 0.0 0.0 0.0 200.2 0.0 0.00 0.0700000 82.0
2021-07-22 07:25:00 68.5 57.4 52.9 68.5 0.0 0.0 0.0 193.1 0.0 0.00 0.0730000 82.0
2021-07-22 07:30:00 68.7 57.5 53.1 68.7 0.0 0.0 0.0 224.6 0.0 0.00 0.0730000 81.9
2021-07-22 07:35:00 68.7 56.1 52.4 68.7 0.0 0.0 0.0 194.4 0.0 0.00 0.0830000 81.9
2021-07-22 07:40:00 69.1 57.0 53.2 69.1 0.0 0.0 0.0 214.0 0.0 0.00 0.0860000 81.8
2021-07-22 07:45:00 69.2 57.3 53.4 69.2 0.0 0.0 0.0 233.0 0.0 0.00 0.0470000 81.8
2021-07-22 07:50:00 69.6 56.1 53.2 69.6 0.0 0.0 0.0 245.7 0.0 0.00 0.1310000 81.8
2021-07-22 07:55:00 69.7 55.7 53.2 69.7 0.0 0.0 0.0 226.7 0.0 0.00 0.1110000 81.7
2021-07-22 08:00:00 70.1 56.0 53.7 70.1 0.0 0.0 0.0 202.0 0.0 0.00 0.1640000 81.7
2021-07-22 08:05:00 70.4 54.7 53.3 70.4 0.0 0.0 0.0 174.6 0.0 0.00 0.2500000 81.7
2021-07-22 08:10:00 70.8 54.2 53.5 70.8 0.0 0.0 0.0 185.5 0.0 0.00 0.2590000 81.6
2021-07-22 08:15:00 71.5 55.7 54.8 71.5 0.0 0.0 0.0 181.0 0.0 0.00 0.1900000 81.6
2021-07-22 08:20:00 71.6 54.8 54.5 71.6 0.0 0.0 0.0 213.4 0.0 0.00 0.2530000 81.6
2021-07-22 08:25:00 72.1 53.4 54.2 72.1 0.0 0.0 0.0 217.1 0.0 0.00 0.2920000 81.6
2021-07-22 08:30:00 72.7 54.3 55.2 72.7 0.0 0.0 0.0 237.2 0.0 0.00 0.3080000 81.6
2021-07-22 08:35:00 73.4 52.3 54.8 73.4 0.0 0.0 0.0 193.1 0.0 0.00 0.3080000 81.6
2021-07-22 08:40:00 73.7 53.8 55.9 73.7 0.0 0.0 0.0 161.4 0.0 0.00 0.3100000 81.6
2021-07-22 08:45:00 73.9 52.2 55.3 73.9 0.0 0.0 0.0 200.2 0.0 0.00 0.3530000 81.6
2021-07-22 08:50:00 74.7 51.4 55.5 74.7 0.0 0.0 0.0 170.6 0.0 0.00 0.3750000 81.6
2021-07-22 08:55:00 75.5 47.5 54.1 75.5 0.0 0.0 0.0 195.1 0.0 0.00 0.3850000 81.7
2021-07-22 09:00:00 75.8 46.5 53.8 75.8 0.0 0.0 0.0 163.5 0.0 0.00 0.3810000 81.7
2021-07-22 09:05:00 76.4 48.7 55.6 76.4 0.0 0.0 0.0 141.2 0.0 0.00 0.2470000 81.8
2021-07-22 09:10:00 76.2 49.4 55.8 76.2 0.0 0.0 0.0 197.0 0.0 0.00 0.2530000 81.8
2021-07-22 09:15:00 76.2 48.0 55.1 76.2 0.0 0.0 0.0 172.0 0.0 0.00 0.3620000 81.9
2021-07-22 09:20:00 76.4 50.1 56.5 76.4 0.0 0.0 0.0 220.5 0.0 0.00 0.3240000 82.0
2021-07-22 09:25:00 76.8 48.7 56.0 76.8 0.0 0.0 0.0 146.1 0.0 0.00 0.3850000 82.1
2021-07-22 09:30:00 77.2 47.6 55.8 77.2 0.0 0.0 0.0 185.0 0.0 0.00 0.4210000 82.2
2021-07-22 09:35:00 77.8 48.4 56.8 77.8 0.0 0.0 0.0 195.9 0.0 0.00 0.3840000 82.3
2021-07-22 09:40:00 78.4 46.1 55.9 78.4 0.0 0.0 0.0 304.2 0.0 0.00 0.4060000 82.4
2021-07-22 09:45:00 77.8 43.6 53.9 77.8 0.0 0.0 0.0 195.6 0.0 0.00 0.3850000 82.5
2021-07-22 09:50:00 77.3 48.6 56.4 77.3 0.0 0.0 0.0 177.4 0.0 0.00 0.3820000 82.7
2021-07-22 09:55:00 77.4 44.5 54.1 77.4 0.0 0.0 0.0 166.1 0.0 0.00 0.3570000 82.8
2021-07-22 10:00:00 77.8 49.1 57.1 77.8 0.0 0.0 0.0 169.1 0.0 0.00 0.4520000 82.9
2021-07-22 10:05:00 79.0 44.7 55.6 79.0 0.0 0.0 0.0 185.3 0.0 0.00 0.5980000 83.0
2021-07-22 10:10:00 80.0 43.4 55.7 80.0 0.0 1.0 0.1 170.8 147.5 0.00 0.5510000 83.2
2021-07-22 10:15:00 80.2 41.9 54.9 80.2 0.0 0.0 0.0 183.1 0.0 0.00 0.6840000 83.3
2021-07-22 10:20:00 79.8 39.4 52.9 79.8 0.0 1.0 0.1 276.7 219.7 0.00 0.6970000 83.5
2021-07-22 10:25:00 80.6 43.5 56.4 80.7 0.0 0.0 0.0 235.3 0.0 0.00 0.6690000 83.6
2021-07-22 10:30:00 80.2 38.5 52.6 80.2 0.0 0.8 0.1 250.6 237.0 0.00 0.7500000 83.8
2021-07-22 10:35:00 80.4 37.9 52.4 80.4 0.0 0.0 0.0 279.0 0.0 0.00 0.5120000 83.9
2021-07-22 10:40:00 81.4 41.0 55.5 81.1 1.5 1.5 0.1 203.5 237.8 0.00 0.8380000 84.1
2021-07-22 10:45:00 81.3 38.5 53.7 81.3 0.0 0.0 0.0 146.9 0.0 0.00 0.8960000 84.3
2021-07-22 10:50:00 82.2 39.2 54.9 82.2 0.0 0.0 0.0 132.6 0.0 0.00 0.7160000 84.5
2021-07-22 10:55:00 82.8 37.3 54.1 82.8 0.0 1.5 0.1 213.7 125.2 0.00 0.8990000 84.7
2021-07-22 11:00:00 82.6 37.3 53.9 82.6 0.0 0.0 0.0 228.0 0.0 0.00 0.4550000 85.0
2021-07-22 11:05:00 82.7 39.5 55.6 82.7 0.0 0.0 0.0 194.4 0.0 0.00 0.8660000 85.2
2021-07-22 11:10:00 83.0 35.4 52.8 83.0 0.0 0.0 0.0 284.3 0.0 0.00 0.8230000 85.5
2021-07-22 11:15:00 83.8 35.5 53.6 83.8 0.0 0.0 0.0 188.8 0.0 0.00 0.8590000 85.8
2021-07-22 11:20:00 84.7 35.8 54.6 84.7 0.0 0.0 0.0 203.1 0.0 0.00 0.9800000 86.0
2021-07-22 11:25:00 84.0 34.5 53.0 84.0 0.0 0.0 0.0 12.8 0.0 0.00 0.6150000 86.3
2021-07-22 11:30:00 84.5 34.7 53.6 84.5 0.0 0.8 0.0 142.9 110.0 0.00 0.9030000 86.5
2021-07-22 11:35:00 85.7 34.1 54.2 85.7 0.0 0.0 0.0 240.7 0.0 0.00 0.8170000 86.8
2021-07-22 11:40:00 85.3 34.6 54.2 85.3 0.0 3.1 0.3 185.8 170.0 0.00 0.8540000 87.1
2021-07-22 11:45:00 85.1 38.2 56.8 85.1 0.0 0.8 0.0 333.8 249.1 0.00 0.9030000 87.4
2021-07-22 11:50:00 85.9 32.9 53.4 85.9 0.0 0.8 0.0 298.0 285.0 0.00 0.5410000 87.7
2021-07-22 11:55:00 85.8 32.5 53.0 85.8 0.0 0.0 0.0 16.9 0.0 0.00 0.8790000 87.9
2021-07-22 12:00:00 85.8 33.6 53.9 85.8 0.0 0.0 0.0 228.1 0.0 0.00 0.5660000 88.3
2021-07-22 12:05:00 85.3 33.2 53.1 85.3 0.0 0.0 0.0 86.3 0.0 0.00 0.5950000 88.5
2021-07-22 12:10:00 85.7 31.3 51.9 85.7 0.0 0.0 0.0 28.1 0.0 0.00 0.6680000 88.8
2021-07-22 12:15:00 85.7 34.0 54.1 85.7 0.8 0.8 0.0 231.0 231.0 0.00 0.5720000 89.0
2021-07-22 12:20:00 85.2 39.1 57.6 85.2 0.0 4.2 0.5 253.0 243.7 0.00 0.5150000 89.3
2021-07-22 12:25:00 85.7 31.4 51.9 85.7 0.0 1.5 0.1 246.8 253.5 0.00 0.3800000 89.5
2021-07-22 12:30:00 86.1 30.4 51.4 86.1 0.0 0.0 0.0 127.3 0.0 0.00 0.6390000 89.7
2021-07-22 12:35:00 86.5 32.7 53.8 86.5 0.0 0.0 0.0 191.5 0.0 0.00 0.9820000 90.0
2021-07-22 12:40:00 86.0 31.4 52.3 86.0 0.0 0.0 0.0 281.5 0.0 0.00 0.6000000 90.2
2021-07-22 12:45:00 87.3 29.9 52.1 87.3 0.0 5.3 0.5 307.2 291.7 0.00 0.9240000 90.4
2021-07-22 12:50:00 87.8 29.3 51.8 87.8 0.0 5.8 0.7 244.8 244.0 0.00 0.9800000 90.7
2021-07-22 12:55:00 88.1 29.9 52.6 88.1 0.0 0.0 0.0 325.2 0.0 0.00 0.9640000 90.9
2021-07-22 13:00:00 88.0 32.2 54.7 88.0 0.0 0.8 0.0 190.6 205.4 0.00 0.7540000 91.1
2021-07-22 13:05:00 87.4 34.6 56.1 87.4 0.0 0.0 0.0 203.1 0.0 0.00 0.4860000 91.4
2021-07-22 13:10:00 87.4 29.8 52.0 87.4 4.0 6.2 2.4 248.9 238.7 0.00 0.1840000 91.6
2021-07-22 13:15:00 87.3 29.7 51.8 87.3 3.5 6.0 0.8 323.4 280.3 0.00 0.4630000 91.9
2021-07-22 13:20:00 87.7 31.6 53.9 87.7 0.0 0.8 0.1 322.6 232.3 0.00 0.5080000 92.1
2021-07-22 13:25:00 88.3 29.2 52.3 88.3 0.0 0.0 0.0 176.1 0.0 0.00 0.4460000 92.3
2021-07-22 13:30:00 88.0 31.6 54.2 88.0 0.0 0.8 0.0 260.4 240.2 0.00 0.3810000 92.5
2021-07-22 13:35:00 87.6 31.8 53.9 87.6 0.0 4.2 0.4 196.5 238.4 0.00 0.3640000 92.7
2021-07-22 13:40:00 87.6 29.4 51.8 87.6 0.0 0.0 0.0 16.5 0.0 0.00 0.4060000 92.9
2021-07-22 13:45:00 88.2 29.3 52.2 88.2 0.0 0.0 0.0 238.1 0.0 0.00 0.4460000 93.0
2021-07-22 13:50:00 87.8 30.7 53.2 87.8 0.0 0.0 0.0 238.8 0.0 0.00 0.2800000 93.1
2021-07-22 13:55:00 88.9 28.4 52.0 88.9 0.0 0.8 0.0 274.4 304.7 0.00 0.4700000 93.3
2021-07-22 14:00:00 89.3 27.6 51.6 89.3 0.0 0.0 0.0 68.7 0.0 0.00 0.3460000 93.4
2021-07-22 14:05:00 88.5 30.1 53.2 88.5 0.0 0.0 0.0 266.7 0.0 0.00 0.3270000 93.5
2021-07-22 14:10:00 88.3 29.9 52.9 88.3 0.0 2.1 0.1 226.5 317.8 0.00 0.1630000 93.5
2021-07-22 14:15:00 87.9 30.3 52.9 87.9 0.0 0.0 0.0 160.3 0.0 0.00 0.2480000 93.6
2021-07-22 14:20:00 87.4 31.3 53.4 87.4 0.0 0.0 0.0 186.1 0.0 0.00 0.2640000 93.7
2021-07-22 14:25:00 86.6 35.3 55.9 86.6 0.0 0.0 0.0 179.0 0.0 0.00 0.3310000 93.7
2021-07-22 14:30:00 87.0 33.0 54.4 87.0 0.0 0.0 0.0 238.9 0.0 0.00 0.4180000 93.8
2021-07-22 14:35:00 88.0 31.7 54.2 88.0 0.0 0.0 0.0 117.1 0.0 0.00 0.8730000 93.8
2021-07-22 14:40:00 89.4 34.4 57.7 89.4 0.0 0.0 0.0 210.8 0.0 0.00 0.8930000 93.8
2021-07-22 14:45:00 89.7 31.1 55.1 89.7 0.0 1.7 0.1 69.4 141.3 0.00 0.8140000 93.9
2021-07-22 14:50:00 89.4 32.2 55.9 89.4 0.0 0.8 0.0 172.1 257.2 0.00 0.8410000 93.9
2021-07-22 14:55:00 89.9 29.2 53.6 89.9 0.0 0.0 0.0 200.1 0.0 0.00 0.8430000 94.0
2021-07-22 15:00:00 89.7 28.2 52.4 89.7 0.0 0.0 0.0 208.3 0.0 0.00 0.8870000 94.1
2021-07-22 15:05:00 89.9 30.4 54.7 89.9 0.0 0.0 0.0 236.8 0.0 0.00 0.4200000 94.2
2021-07-22 15:10:00 88.8 29.7 53.1 88.8 0.0 0.0 0.0 263.8 0.0 0.00 0.7840000 94.4
2021-07-22 15:15:00 89.0 33.2 56.4 89.0 0.0 0.0 0.0 152.0 0.0 0.00 0.8330000 94.5
2021-07-22 15:20:00 90.1 32.4 56.6 90.1 0.0 0.0 0.0 156.6 0.0 0.00 0.8410000 94.7
2021-07-22 15:25:00 90.6 29.5 54.4 90.6 0.0 1.5 0.1 192.6 190.3 0.00 0.8350000 94.9
2021-07-22 15:30:00 89.8 31.5 55.5 89.8 0.0 3.1 0.2 205.6 216.1 0.00 0.2850000 95.0
2021-07-22 15:35:00 88.8 31.8 55.0 88.8 0.0 3.0 0.4 218.8 192.5 0.00 0.6380000 95.2
2021-07-22 15:40:00 89.3 31.8 55.4 89.3 0.0 2.8 0.1 263.1 225.6 0.00 0.7510000 95.4
2021-07-22 15:45:00 90.1 30.6 55.1 90.1 0.0 1.2 0.1 216.4 201.7 0.00 0.7370000 95.5
2021-07-22 15:50:00 89.6 30.8 54.8 89.6 0.0 0.0 0.0 140.9 0.0 0.00 0.7340000 95.7
2021-07-22 15:55:00 89.6 32.0 55.8 89.6 0.0 1.9 0.1 185.5 155.4 0.00 0.7480000 95.8
2021-07-22 16:00:00 91.0 29.5 54.8 91.0 0.0 1.7 0.2 162.0 157.2 0.00 0.7900000 96.0
2021-07-22 16:05:00 91.9 28.5 54.6 91.9 0.0 0.8 0.0 130.1 152.2 0.00 0.4830000 96.1
2021-07-22 16:10:00 90.1 30.4 54.8 90.1 0.0 0.0 0.0 169.5 0.0 0.00 0.5680000 96.3
2021-07-22 16:15:00 89.1 34.7 57.7 89.1 0.0 0.0 0.0 239.4 0.0 0.00 0.4300000 96.4
2021-07-22 16:20:00 88.9 31.8 55.1 88.9 0.0 0.8 0.0 198.0 189.0 0.00 0.4910000 96.4
2021-07-22 16:25:00 89.4 31.6 55.3 89.4 0.0 1.5 0.1 176.7 161.3 0.00 0.4010000 96.5
2021-07-22 16:30:00 89.7 34.2 57.8 89.7 0.0 2.4 0.1 150.5 138.3 0.00 0.2730000 96.5
2021-07-22 16:35:00 89.5 32.4 56.0 89.5 0.0 0.0 0.0 170.9 0.0 0.00 0.1970000 96.6
2021-07-22 16:40:00 88.1 35.4 57.3 88.1 0.0 0.0 0.0 213.2 0.0 0.00 0.1520000 96.6
2021-07-22 16:45:00 87.3 36.7 57.6 87.3 0.0 0.0 0.0 167.3 0.0 0.00 0.1240000 96.6
2021-07-22 16:50:00 86.9 34.7 55.7 86.9 0.0 0.8 0.0 193.3 164.9 0.00 0.1090000 96.6
2021-07-22 16:55:00 86.7 35.8 56.5 86.7 0.0 1.2 0.1 199.3 162.7 0.00 0.1050000 96.6
2021-07-22 17:00:00 86.7 36.3 56.8 86.7 0.0 0.8 0.0 161.0 195.6 0.00 0.1070000 96.6
2021-07-22 17:05:00 86.5 36.7 56.9 86.5 0.0 0.0 0.0 216.1 0.0 0.00 0.1170000 96.5
2021-07-22 17:10:00 86.1 36.1 56.2 86.1 0.0 0.0 0.0 195.0 0.0 0.00 0.1360000 96.5
2021-07-22 17:15:00 86.1 36.4 56.4 86.1 0.0 0.0 0.0 178.0 0.0 0.00 0.1770000 96.4
2021-07-22 17:20:00 86.3 37.2 57.2 86.3 0.0 0.0 0.0 194.2 0.0 0.00 0.1310000 96.3
2021-07-22 17:25:00 86.8 35.9 56.5 86.8 0.0 0.0 0.0 210.3 0.0 0.00 0.2880000 96.2
2021-07-22 17:30:00 87.0 34.3 55.5 87.0 0.0 0.8 0.0 157.2 136.4 0.00 0.3040000 96.2
2021-07-22 17:35:00 87.1 35.4 56.5 87.1 0.0 0.0 0.0 189.5 0.0 0.00 0.1730000 96.1
2021-07-22 17:40:00 86.5 35.8 56.2 86.5 0.0 0.0 0.0 198.6 0.0 0.00 0.1550000 96.0
2021-07-22 17:45:00 86.3 36.9 56.9 86.3 0.0 0.0 0.0 207.2 0.0 0.00 0.1510000 96.0
2021-07-22 17:50:00 86.1 37.6 57.2 86.1 0.0 0.0 0.0 201.6 0.0 0.00 0.1560000 95.9
2021-07-22 17:55:00 85.8 36.7 56.3 85.8 0.0 0.0 0.0 193.4 0.0 0.00 0.1610000 95.8
2021-07-22 18:00:00 85.9 36.7 56.4 85.9 0.0 0.0 0.0 183.6 0.0 0.00 0.1710000 95.7
2021-07-22 18:05:00 86.2 37.5 57.2 86.2 0.0 0.0 0.0 216.0 0.0 0.00 0.1820000 95.6
2021-07-22 18:10:00 86.2 37.3 57.1 86.2 0.0 0.0 0.0 223.3 0.0 0.00 0.2170000 95.6
2021-07-22 18:15:00 85.1 37.9 56.5 85.1 3.0 12.4 4.4 239.3 232.4 0.00 0.1780000 95.5
2021-07-22 18:20:00 84.3 38.9 56.6 84.3 9.2 11.5 3.6 232.0 232.8 0.00 0.1720000 95.4
2021-07-22 18:25:00 83.9 39.5 56.7 83.9 4.4 12.4 7.2 248.8 238.7 0.00 0.1290000 95.3
2021-07-22 18:30:00 83.2 41.0 57.1 82.7 5.5 12.1 4.6 231.8 245.2 0.00 0.1090000 95.2
2021-07-22 18:35:00 82.6 42.0 57.2 82.2 0.0 12.6 7.0 236.5 239.8 0.00 0.1160000 95.1
2021-07-22 18:40:00 82.7 41.7 57.1 82.3 2.8 7.4 2.9 228.3 231.4 0.00 0.1070000 95.1
2021-07-22 18:45:00 83.0 41.5 57.2 82.5 4.7 9.9 3.0 248.3 238.8 0.00 0.0910000 95.0
2021-07-22 18:50:00 83.6 39.4 56.3 83.6 1.9 8.7 2.3 238.3 241.3 0.00 0.0500000 94.9
2021-07-22 18:55:00 84.2 39.6 57.0 84.2 1.3 6.5 1.6 294.0 242.6 0.00 0.0240000 94.8
2021-07-22 19:00:00 83.9 37.3 55.1 83.9 10.1 11.5 4.2 336.7 274.9 0.00 0.0190000 94.7
2021-07-22 19:05:00 83.5 37.3 54.7 83.5 12.1 16.4 9.7 231.2 279.9 0.00 0.0140000 94.6
2021-07-22 19:10:00 82.2 39.7 55.2 82.2 8.8 18.9 10.1 152.5 273.4 0.00 0.0100000 94.5
2021-07-22 19:15:00 81.3 40.5 55.1 81.0 5.3 14.6 7.4 295.7 283.4 0.00 0.0090000 94.4
2021-07-22 19:20:00 80.6 41.8 55.3 80.5 4.6 14.7 7.8 321.1 275.0 0.00 0.0080000 94.3
2021-07-22 19:25:00 80.6 42.0 55.4 80.5 4.2 13.1 7.3 233.9 276.2 0.00 0.0080000 94.2
2021-07-22 19:30:00 80.1 41.6 54.7 80.1 3.1 11.5 5.2 238.1 276.3 0.00 0.0070000 94.1
2021-07-22 19:35:00 80.1 41.8 54.9 80.2 6.0 8.7 3.5 266.0 245.8 0.00 0.0070000 93.9
2021-07-22 19:40:00 80.0 42.1 54.9 80.1 3.8 11.7 4.7 295.1 250.3 0.00 0.0090000 93.8
2021-07-22 19:45:00 79.9 42.1 54.8 79.9 5.6 5.6 1.8 228.4 254.3 0.00 0.0100000 93.7
2021-07-22 19:50:00 79.8 42.8 55.2 79.8 3.7 9.6 2.8 226.6 249.0 0.00 0.0090000 93.6
2021-07-22 19:55:00 79.6 43.5 55.5 79.6 4.9 9.9 3.9 228.8 241.1 0.00 0.0060000 93.5
2021-07-22 20:00:00 79.2 43.9 55.4 79.2 10.1 10.6 2.9 222.6 244.6 0.00 0.0050000 93.3
2021-07-22 20:05:00 78.9 44.0 55.2 78.9 3.8 13.3 5.5 227.5 239.0 0.00 0.0030000 93.2
2021-07-22 20:10:00 78.7 45.2 55.7 78.7 2.1 6.7 2.4 190.9 238.9 0.00 0.0020000 93.1
2021-07-22 20:15:00 77.9 48.3 56.8 77.9 0.0 0.0 0.0 265.3 0.0 0.00 0.0010000 92.9
2021-07-22 20:20:00 76.9 51.0 57.4 76.9 0.0 3.7 0.7 193.5 176.2 0.00 0.0010000 92.8
2021-07-22 20:25:00 75.1 55.6 58.1 75.1 4.6 6.0 1.4 227.8 193.5 0.00 0.0000000 92.6
2021-07-22 20:30:00 73.6 60.0 58.8 73.6 0.0 10.1 4.2 174.1 213.3 0.00 0.0000000 92.5
2021-07-22 20:35:00 73.0 61.1 58.7 73.0 5.3 8.8 5.4 204.4 230.8 0.00 0.0000000 92.4
2021-07-22 20:40:00 72.8 60.6 58.3 72.8 5.3 13.9 5.4 220.0 225.4 0.00 0.0000000 92.3
2021-07-22 20:45:00 73.2 59.4 58.2 73.2 6.5 15.1 7.3 231.0 235.6 0.00 0.0000000 92.1
2021-07-22 20:50:00 73.5 58.5 58.0 73.5 4.7 12.2 6.4 235.4 238.9 0.00 0.0000000 92.0
2021-07-22 20:55:00 73.9 57.9 58.1 73.9 7.4 12.2 6.1 227.5 241.7 0.00 0.0000000 91.8
2021-07-22 21:00:00 74.4 56.9 58.2 74.4 7.4 10.6 6.5 247.9 238.1 0.00 0.0000000 91.7
2021-07-22 21:05:00 74.6 56.3 58.0 74.6 2.4 9.2 5.6 246.7 237.1 0.00 0.0000000 91.6
2021-07-22 21:10:00 74.8 56.0 58.0 74.8 4.2 6.9 4.2 233.8 237.0 0.00 0.0000000 91.5
2021-07-22 21:15:00 74.8 55.8 57.9 74.8 6.9 8.3 5.1 240.3 245.7 0.00 0.0000000 91.4
2021-07-22 21:20:00 74.6 55.9 57.8 74.6 0.8 8.7 4.5 224.4 233.5 0.00 0.0000000 91.2
2021-07-22 21:25:00 74.6 56.1 57.9 74.6 4.4 6.9 2.9 254.1 240.0 0.00 0.0000000 91.1
2021-07-22 21:30:00 74.1 56.7 57.8 74.1 3.0 7.1 3.3 235.6 237.2 0.00 0.0000000 91.0
2021-07-22 21:35:00 74.0 57.5 58.1 74.0 2.6 4.7 1.7 221.7 216.5 0.00 0.0000000 90.8
2021-07-22 21:40:00 74.1 60.4 59.5 74.1 0.8 3.1 0.4 143.1 191.5 0.00 0.0000000 90.7
2021-07-22 21:45:00 73.0 64.2 60.2 73.0 1.0 1.3 0.2 235.6 136.8 0.00 0.0000000 90.6
2021-07-22 21:50:00 71.7 65.8 59.7 71.7 0.0 4.2 1.0 265.0 238.8 0.00 0.0000000 90.5
2021-07-22 21:55:00 71.6 66.4 59.8 71.6 0.0 1.7 0.2 159.8 187.6 0.00 0.0000000 90.3
2021-07-22 22:00:00 71.3 66.8 59.7 71.3 0.0 0.0 0.0 144.2 0.0 0.00 0.0000000 90.2
2021-07-22 22:05:00 71.2 65.9 59.2 71.2 0.0 1.2 0.1 198.1 169.3 0.00 0.0000000 90.1
2021-07-22 22:10:00 71.3 65.1 59.0 71.3 0.0 2.2 0.3 127.5 149.6 0.00 0.0000000 90.0
2021-07-22 22:15:00 71.5 65.4 59.3 71.5 0.0 1.5 0.1 180.3 159.9 0.00 0.0000000 89.8
2021-07-22 22:20:00 71.4 64.5 58.8 71.4 0.0 0.0 0.0 220.6 0.0 0.00 0.0000000 89.7
2021-07-22 22:25:00 71.1 64.3 58.4 71.1 0.0 0.0 0.0 213.3 0.0 0.00 0.0000000 89.6
2021-07-22 22:30:00 71.2 64.4 58.6 71.2 0.0 0.0 0.0 345.5 0.0 0.00 0.0000000 89.5
2021-07-22 22:35:00 70.9 64.8 58.5 70.9 0.0 0.0 0.0 165.1 0.0 0.00 0.0000000 89.4
2021-07-22 22:40:00 70.4 65.3 58.3 70.4 0.0 0.0 0.0 136.9 0.0 0.00 0.0000000 89.2
2021-07-22 22:45:00 70.6 66.1 58.7 70.6 0.0 0.0 0.0 126.0 0.0 0.00 0.0000000 89.1
2021-07-22 22:50:00 70.1 67.8 59.0 70.1 0.0 0.0 0.0 210.1 0.0 0.00 0.0000000 89.0
2021-07-22 22:55:00 69.9 67.6 58.7 69.9 0.0 0.0 0.0 104.3 0.0 0.00 0.0000000 88.9
2021-07-22 23:00:00 69.7 68.1 58.7 69.7 0.0 0.0 0.0 116.0 0.0 0.00 0.0000000 88.8
2021-07-22 23:05:00 69.5 69.2 58.9 69.5 0.0 0.0 0.0 53.9 0.0 0.00 0.0000000 88.7
2021-07-22 23:10:00 69.5 69.5 59.1 69.5 0.0 0.0 0.0 315.3 0.0 0.00 0.0000000 88.5
2021-07-22 23:15:00 69.1 70.2 59.0 69.1 0.0 0.0 0.0 125.0 0.0 0.00 0.0000000 88.4
2021-07-22 23:20:00 68.6 71.5 59.0 68.6 0.0 0.0 0.0 50.4 0.0 0.00 0.0000000 88.3
2021-07-22 23:25:00 67.9 73.3 59.1 67.9 0.0 0.0 0.0 26.3 0.0 0.00 0.0000000 88.2
2021-07-22 23:30:00 67.4 74.8 59.1 67.4 0.0 0.0 0.0 23.6 0.0 0.00 0.0000000 88.1
2021-07-22 23:35:00 67.2 75.3 59.2 67.2 0.0 0.0 0.0 23.6 0.0 0.00 0.0000000 88.0
2021-07-22 23:40:00 67.4 75.6 59.4 67.4 0.0 0.0 0.0 201.5 0.0 0.00 0.0000000 87.8
2021-07-22 23:45:00 67.4 74.5 59.0 67.4 0.0 0.0 0.0 257.8 0.0 0.00 0.0000000 87.8
2021-07-22 23:50:00 67.4 74.0 58.8 67.4 0.0 0.0 0.0 338.4 0.0 0.00 0.0000000 87.6
2021-07-22 23:55:00 67.5 74.3 59.0 67.5 0.0 0.0 0.0 246.6 0.0 0.00 0.0000000 87.5
2021-07-23 00:00:00 67.4 74.3 59.0 67.4 0.0 0.0 0.0 256.3 0.0 0.00 0.0000000 87.4

Data is courtesy of the NM Climate Center. DO NOT USE IN LEGAL PROCEEDINGS.